sensor_id;sensor_type;location;lat;lon;timestamp;P1;durP1;ratioP1;P2;durP2;ratioP2
69008;SDS011;56065;52.472;13.380;2023-02-07T00:02:20;33.03;;;14.17;;
69008;SDS011;56065;52.472;13.380;2023-02-07T00:04:46;34.05;;;12.65;;
69008;SDS011;56065;52.472;13.380;2023-02-07T00:07:11;29.63;;;12.60;;
69008;SDS011;56065;52.472;13.380;2023-02-07T00:09:36;29.27;;;12.33;;
69008;SDS011;56065;52.472;13.380;2023-02-07T00:12:05;30.57;;;11.67;;
69008;SDS011;56065;52.472;13.380;2023-02-07T00:14:30;29.38;;;12.45;;
69008;SDS011;56065;52.472;13.380;2023-02-07T00:16:55;33.73;;;13.70;;
69008;SDS011;56065;52.472;13.380;2023-02-07T00:19:21;27.77;;;12.07;;
69008;SDS011;56065;52.472;13.380;2023-02-07T00:21:47;33.67;;;14.85;;
69008;SDS011;56065;52.472;13.380;2023-02-07T00:24:12;32.83;;;13.37;;
69008;SDS011;56065;52.472;13.380;2023-02-07T00:26:38;28.80;;;12.07;;
69008;SDS011;56065;52.472;13.380;2023-02-07T00:29:04;27.45;;;11.75;;
69008;SDS011;56065;52.472;13.380;2023-02-07T00:31:30;29.40;;;11.70;;
69008;SDS011;56065;52.472;13.380;2023-02-07T00:33:58;32.07;;;12.07;;
69008;SDS011;56065;52.472;13.380;2023-02-07T00:36:26;30.13;;;12.43;;
69008;SDS011;56065;52.472;13.380;2023-02-07T00:38:56;37.40;;;14.27;;
69008;SDS011;56065;52.472;13.380;2023-02-07T00:41:26;29.55;;;12.35;;
69008;SDS011;56065;52.472;13.380;2023-02-07T00:43:52;30.20;;;12.05;;
69008;SDS011;56065;52.472;13.380;2023-02-07T00:46:18;26.90;;;11.60;;
69008;SDS011;56065;52.472;13.380;2023-02-07T00:48:43;32.03;;;12.30;;
69008;SDS011;56065;52.472;13.380;2023-02-07T00:51:09;31.50;;;13.00;;
69008;SDS011;56065;52.472;13.380;2023-02-07T00:53:37;26.45;;;11.95;;
69008;SDS011;56065;52.472;13.380;2023-02-07T00:56:03;29.35;;;12.77;;
69008;SDS011;56065;52.472;13.380;2023-02-07T00:58:29;29.60;;;12.65;;
69008;SDS011;56065;52.472;13.380;2023-02-07T01:00:54;33.10;;;12.90;;
69008;SDS011;56065;52.472;13.380;2023-02-07T01:03:19;29.13;;;12.23;;
69008;SDS011;56065;52.472;13.380;2023-02-07T01:05:45;32.83;;;13.20;;
69008;SDS011;56065;52.472;13.380;2023-02-07T01:08:10;33.70;;;12.10;;
69008;SDS011;56065;52.472;13.380;2023-02-07T01:10:37;27.17;;;11.35;;
69008;SDS011;56065;52.472;13.380;2023-02-07T01:13:04;27.40;;;13.18;;
69008;SDS011;56065;52.472;13.380;2023-02-07T01:15:30;26.77;;;11.18;;
69008;SDS011;56065;52.472;13.380;2023-02-07T01:17:55;28.40;;;11.43;;
69008;SDS011;56065;52.472;13.380;2023-02-07T01:20:20;29.13;;;12.63;;
69008;SDS011;56065;52.472;13.380;2023-02-07T01:22:46;30.07;;;12.33;;
69008;SDS011;56065;52.472;13.380;2023-02-07T01:25:11;29.73;;;12.43;;
69008;SDS011;56065;52.472;13.380;2023-02-07T01:27:36;31.35;;;12.95;;
69008;SDS011;56065;52.472;13.380;2023-02-07T01:30:02;33.07;;;12.90;;
69008;SDS011;56065;52.472;13.380;2023-02-07T01:32:31;27.40;;;12.02;;
69008;SDS011;56065;52.472;13.380;2023-02-07T01:34:57;26.08;;;11.52;;
69008;SDS011;56065;52.472;13.380;2023-02-07T01:37:22;29.10;;;12.53;;
69008;SDS011;56065;52.472;13.380;2023-02-07T01:39:47;32.00;;;11.95;;
69008;SDS011;56065;52.472;13.380;2023-02-07T01:42:13;32.00;;;12.40;;
69008;SDS011;56065;52.472;13.380;2023-02-07T01:47:04;31.30;;;12.63;;
69008;SDS011;56065;52.472;13.380;2023-02-07T01:49:31;31.57;;;12.23;;
69008;SDS011;56065;52.472;13.380;2023-02-07T01:52:04;28.85;;;11.38;;
69008;SDS011;56065;52.472;13.380;2023-02-07T01:54:33;28.65;;;11.05;;
69008;SDS011;56065;52.472;13.380;2023-02-07T01:57:04;32.30;;;12.83;;
69008;SDS011;56065;52.472;13.380;2023-02-07T01:59:32;29.92;;;11.20;;
69008;SDS011;56065;52.472;13.380;2023-02-07T02:01:59;28.25;;;11.85;;
69008;SDS011;56065;52.472;13.380;2023-02-07T02:04:27;27.73;;;11.30;;
69008;SDS011;56065;52.472;13.380;2023-02-07T02:06:52;28.63;;;12.43;;
69008;SDS011;56065;52.472;13.380;2023-02-07T02:09:18;35.35;;;12.95;;
69008;SDS011;56065;52.472;13.380;2023-02-07T02:28:34;24.40;;;11.15;;
69008;SDS011;56065;52.472;13.380;2023-02-07T02:41:39;27.63;;;11.32;;
69008;SDS011;56065;52.472;13.380;2023-02-07T02:44:14;29.27;;;11.93;;
69008;SDS011;56065;52.472;13.380;2023-02-07T02:46:44;24.23;;;10.57;;
69008;SDS011;56065;52.472;13.380;2023-02-07T02:49:12;27.90;;;10.90;;
69008;SDS011;56065;52.472;13.380;2023-02-07T02:51:39;24.58;;;11.02;;
69008;SDS011;56065;52.472;13.380;2023-02-07T02:54:23;22.00;;;9.77;;
69008;SDS011;56065;52.472;13.380;2023-02-07T03:08:03;24.40;;;9.98;;
69008;SDS011;56065;52.472;13.380;2023-02-07T03:13:25;29.30;;;10.85;;
69008;SDS011;56065;52.472;13.380;2023-02-07T03:20:53;27.35;;;10.65;;
69008;SDS011;56065;52.472;13.380;2023-02-07T03:23:23;27.63;;;11.13;;
69008;SDS011;56065;52.472;13.380;2023-02-07T03:25:49;26.52;;;11.13;;
69008;SDS011;56065;52.472;13.380;2023-02-07T03:28:16;28.83;;;11.73;;
69008;SDS011;56065;52.472;13.380;2023-02-07T03:30:44;26.00;;;11.88;;
69008;SDS011;56065;52.472;13.380;2023-02-07T03:33:12;28.63;;;11.85;;
69008;SDS011;56065;52.472;13.380;2023-02-07T03:35:47;29.73;;;11.00;;
69008;SDS011;56065;52.472;13.380;2023-02-07T03:38:20;26.70;;;11.15;;
69008;SDS011;56065;52.472;13.380;2023-02-07T03:40:46;27.50;;;11.67;;
69008;SDS011;56065;52.472;13.380;2023-02-07T03:43:22;27.67;;;12.27;;
69008;SDS011;56065;52.472;13.380;2023-02-07T03:45:51;29.60;;;11.80;;
69008;SDS011;56065;52.472;13.380;2023-02-07T03:48:16;29.73;;;11.70;;
69008;SDS011;56065;52.472;13.380;2023-02-07T03:50:42;30.95;;;11.90;;
69008;SDS011;56065;52.472;13.380;2023-02-07T03:53:08;29.37;;;11.77;;
69008;SDS011;56065;52.472;13.380;2023-02-07T03:55:33;29.40;;;11.40;;
69008;SDS011;56065;52.472;13.380;2023-02-07T03:57:58;32.50;;;12.07;;
69008;SDS011;56065;52.472;13.380;2023-02-07T04:00:24;35.33;;;13.20;;
69008;SDS011;56065;52.472;13.380;2023-02-07T04:02:50;32.63;;;12.87;;
69008;SDS011;56065;52.472;13.380;2023-02-07T04:05:15;32.55;;;13.05;;
69008;SDS011;56065;52.472;13.380;2023-02-07T04:07:40;38.93;;;13.70;;
69008;SDS011;56065;52.472;13.380;2023-02-07T04:10:06;34.17;;;14.30;;
69008;SDS011;56065;52.472;13.380;2023-02-07T04:12:33;35.70;;;14.07;;
69008;SDS011;56065;52.472;13.380;2023-02-07T04:14:59;32.83;;;14.10;;
69008;SDS011;56065;52.472;13.380;2023-02-07T04:17:24;39.22;;;14.90;;
69008;SDS011;56065;52.472;13.380;2023-02-07T04:19:50;32.73;;;13.37;;
69008;SDS011;56065;52.472;13.380;2023-02-07T04:22:15;36.93;;;14.13;;
69008;SDS011;56065;52.472;13.380;2023-02-07T04:24:40;38.83;;;14.67;;
69008;SDS011;56065;52.472;13.380;2023-02-07T04:27:06;36.88;;;14.02;;
69008;SDS011;56065;52.472;13.380;2023-02-07T04:29:31;34.97;;;14.98;;
69008;SDS011;56065;52.472;13.380;2023-02-07T04:31:56;39.40;;;15.07;;
69008;SDS011;56065;52.472;13.380;2023-02-07T04:34:22;37.80;;;15.63;;
69008;SDS011;56065;52.472;13.380;2023-02-07T04:36:47;37.23;;;14.37;;
69008;SDS011;56065;52.472;13.380;2023-02-07T04:39:13;35.00;;;15.90;;
69008;SDS011;56065;52.472;13.380;2023-02-07T04:41:38;33.58;;;14.23;;
69008;SDS011;56065;52.472;13.380;2023-02-07T04:44:04;37.67;;;15.20;;
69008;SDS011;56065;52.472;13.380;2023-02-07T04:46:29;38.37;;;14.20;;
69008;SDS011;56065;52.472;13.380;2023-02-07T04:48:54;34.83;;;14.17;;
69008;SDS011;56065;52.472;13.380;2023-02-07T04:51:20;38.10;;;14.57;;
69008;SDS011;56065;52.472;13.380;2023-02-07T04:53:45;32.90;;;14.57;;
69008;SDS011;56065;52.472;13.380;2023-02-07T04:56:11;36.13;;;14.53;;
69008;SDS011;56065;52.472;13.380;2023-02-07T04:58:36;32.23;;;13.87;;
69008;SDS011;56065;52.472;13.380;2023-02-07T05:01:02;36.53;;;14.95;;
69008;SDS011;56065;52.472;13.380;2023-02-07T05:03:27;36.40;;;14.47;;
69008;SDS011;56065;52.472;13.380;2023-02-07T05:05:53;35.63;;;14.33;;
69008;SDS011;56065;52.472;13.380;2023-02-07T05:08:19;38.40;;;15.40;;
69008;SDS011;56065;52.472;13.380;2023-02-07T05:10:46;35.08;;;14.88;;
69008;SDS011;56065;52.472;13.380;2023-02-07T05:13:11;33.25;;;14.70;;
69008;SDS011;56065;52.472;13.380;2023-02-07T05:15:37;36.63;;;14.33;;
69008;SDS011;56065;52.472;13.380;2023-02-07T05:18:02;32.30;;;13.03;;
69008;SDS011;56065;52.472;13.380;2023-02-07T05:20:28;35.78;;;14.40;;
69008;SDS011;56065;52.472;13.380;2023-02-07T05:22:54;36.03;;;14.55;;
69008;SDS011;56065;52.472;13.380;2023-02-07T05:25:19;33.37;;;13.43;;
69008;SDS011;56065;52.472;13.380;2023-02-07T05:27:45;32.10;;;14.47;;
69008;SDS011;56065;52.472;13.380;2023-02-07T05:30:10;35.03;;;13.17;;
69008;SDS011;56065;52.472;13.380;2023-02-07T05:32:36;35.60;;;13.77;;
69008;SDS011;56065;52.472;13.380;2023-02-07T05:35:20;34.45;;;14.07;;
69008;SDS011;56065;52.472;13.380;2023-02-07T05:37:45;32.20;;;13.63;;
69008;SDS011;56065;52.472;13.380;2023-02-07T05:40:11;33.33;;;14.73;;
69008;SDS011;56065;52.472;13.380;2023-02-07T05:42:39;33.10;;;14.35;;
69008;SDS011;56065;52.472;13.380;2023-02-07T05:45:06;31.55;;;14.75;;
69008;SDS011;56065;52.472;13.380;2023-02-07T05:47:32;38.53;;;15.57;;
69008;SDS011;56065;52.472;13.380;2023-02-07T05:49:58;31.67;;;14.07;;
69008;SDS011;56065;52.472;13.380;2023-02-07T05:52:24;35.50;;;14.20;;
69008;SDS011;56065;52.472;13.380;2023-02-07T05:54:49;35.10;;;13.85;;
69008;SDS011;56065;52.472;13.380;2023-02-07T05:57:15;36.53;;;14.60;;
69008;SDS011;56065;52.472;13.380;2023-02-07T05:59:40;32.17;;;14.83;;
69008;SDS011;56065;52.472;13.380;2023-02-07T06:02:05;32.30;;;14.07;;
69008;SDS011;56065;52.472;13.380;2023-02-07T06:04:31;35.47;;;15.20;;
69008;SDS011;56065;52.472;13.380;2023-02-07T06:06:56;32.67;;;14.40;;
69008;SDS011;56065;52.472;13.380;2023-02-07T06:09:21;35.35;;;13.63;;
69008;SDS011;56065;52.472;13.380;2023-02-07T06:11:47;36.63;;;14.93;;
69008;SDS011;56065;52.472;13.380;2023-02-07T06:14:12;45.90;;;17.27;;
69008;SDS011;56065;52.472;13.380;2023-02-07T06:16:38;33.23;;;14.43;;
69008;SDS011;56065;52.472;13.380;2023-02-07T06:19:03;38.03;;;13.80;;
69008;SDS011;56065;52.472;13.380;2023-02-07T06:21:28;32.70;;;14.03;;
69008;SDS011;56065;52.472;13.380;2023-02-07T06:23:54;33.27;;;14.80;;
69008;SDS011;56065;52.472;13.380;2023-02-07T06:26:19;35.30;;;14.63;;
69008;SDS011;56065;52.472;13.380;2023-02-07T06:28:45;36.42;;;14.93;;
69008;SDS011;56065;52.472;13.380;2023-02-07T06:31:10;36.30;;;15.20;;
69008;SDS011;56065;52.472;13.380;2023-02-07T06:33:35;40.93;;;16.93;;
69008;SDS011;56065;52.472;13.380;2023-02-07T06:36:01;37.43;;;17.10;;
69008;SDS011;56065;52.472;13.380;2023-02-07T06:38:26;42.88;;;16.42;;
69008;SDS011;56065;52.472;13.380;2023-02-07T06:40:52;34.97;;;15.50;;
69008;SDS011;56065;52.472;13.380;2023-02-07T06:43:17;34.67;;;16.27;;
69008;SDS011;56065;52.472;13.380;2023-02-07T06:45:42;39.07;;;15.00;;
69008;SDS011;56065;52.472;13.380;2023-02-07T06:48:08;36.63;;;14.33;;
69008;SDS011;56065;52.472;13.380;2023-02-07T06:50:34;31.15;;;13.88;;
69008;SDS011;56065;52.472;13.380;2023-02-07T06:52:59;35.87;;;14.27;;
69008;SDS011;56065;52.472;13.380;2023-02-07T06:55:27;35.15;;;15.05;;
69008;SDS011;56065;52.472;13.380;2023-02-07T06:57:53;31.90;;;13.95;;
69008;SDS011;56065;52.472;13.380;2023-02-07T07:00:19;32.57;;;14.23;;
69008;SDS011;56065;52.472;13.380;2023-02-07T07:02:46;35.10;;;14.57;;
69008;SDS011;56065;52.472;13.380;2023-02-07T07:05:11;33.35;;;14.70;;
69008;SDS011;56065;52.472;13.380;2023-02-07T07:07:37;43.03;;;16.47;;
69008;SDS011;56065;52.472;13.380;2023-02-07T07:10:02;36.47;;;14.80;;
69008;SDS011;56065;52.472;13.380;2023-02-07T07:12:27;35.40;;;14.57;;
69008;SDS011;56065;52.472;13.380;2023-02-07T07:14:53;36.67;;;14.55;;
69008;SDS011;56065;52.472;13.380;2023-02-07T07:17:18;38.63;;;14.27;;
69008;SDS011;56065;52.472;13.380;2023-02-07T07:19:43;33.23;;;12.23;;
69008;SDS011;56065;52.472;13.380;2023-02-07T07:22:09;35.57;;;14.83;;
69008;SDS011;56065;52.472;13.380;2023-02-07T07:24:34;33.93;;;15.13;;
69008;SDS011;56065;52.472;13.380;2023-02-07T07:26:59;38.03;;;15.30;;
69008;SDS011;56065;52.472;13.380;2023-02-07T07:29:25;37.53;;;15.80;;
69008;SDS011;56065;52.472;13.380;2023-02-07T07:31:50;39.47;;;17.27;;
69008;SDS011;56065;52.472;13.380;2023-02-07T07:34:15;46.47;;;20.60;;
69008;SDS011;56065;52.472;13.380;2023-02-07T07:36:41;52.33;;;22.25;;
69008;SDS011;56065;52.472;13.380;2023-02-07T07:39:06;46.20;;;20.30;;
69008;SDS011;56065;52.472;13.380;2023-02-07T07:41:32;45.25;;;20.58;;
69008;SDS011;56065;52.472;13.380;2023-02-07T07:43:58;51.33;;;20.33;;
69008;SDS011;56065;52.472;13.380;2023-02-07T07:46:23;47.57;;;20.60;;
69008;SDS011;56065;52.472;13.380;2023-02-07T07:48:49;49.13;;;19.73;;
69008;SDS011;56065;52.472;13.380;2023-02-07T07:51:14;39.13;;;17.33;;
69008;SDS011;56065;52.472;13.380;2023-02-07T07:53:39;41.03;;;18.15;;
69008;SDS011;56065;52.472;13.380;2023-02-07T07:56:05;40.80;;;17.73;;
69008;SDS011;56065;52.472;13.380;2023-02-07T07:58:30;42.17;;;17.97;;
69008;SDS011;56065;52.472;13.380;2023-02-07T08:00:56;36.63;;;17.37;;
69008;SDS011;56065;52.472;13.380;2023-02-07T08:03:21;39.20;;;18.23;;
69008;SDS011;56065;52.472;13.380;2023-02-07T08:05:48;39.50;;;17.63;;
69008;SDS011;56065;52.472;13.380;2023-02-07T08:08:14;39.83;;;18.05;;
69008;SDS011;56065;52.472;13.380;2023-02-07T08:10:40;36.58;;;15.80;;
69008;SDS011;56065;52.472;13.380;2023-02-07T08:13:06;36.90;;;16.63;;
69008;SDS011;56065;52.472;13.380;2023-02-07T08:15:32;32.43;;;15.90;;
69008;SDS011;56065;52.472;13.380;2023-02-07T08:17:58;35.58;;;16.00;;
69008;SDS011;56065;52.472;13.380;2023-02-07T08:20:23;33.90;;;14.93;;
69008;SDS011;56065;52.472;13.380;2023-02-07T08:22:48;33.50;;;16.07;;
69008;SDS011;56065;52.472;13.380;2023-02-07T08:25:14;27.73;;;13.70;;
69008;SDS011;56065;52.472;13.380;2023-02-07T08:27:39;36.80;;;13.90;;
69008;SDS011;56065;52.472;13.380;2023-02-07T08:30:06;27.33;;;12.97;;
69008;SDS011;56065;52.472;13.380;2023-02-07T08:32:35;29.65;;;13.55;;
69008;SDS011;56065;52.472;13.380;2023-02-07T08:35:01;31.73;;;14.87;;
69008;SDS011;56065;52.472;13.380;2023-02-07T08:37:26;30.40;;;14.30;;
69008;SDS011;56065;52.472;13.380;2023-02-07T08:39:51;29.07;;;14.53;;
69008;SDS011;56065;52.472;13.380;2023-02-07T08:42:20;26.60;;;12.90;;
69008;SDS011;56065;52.472;13.380;2023-02-07T08:44:47;28.87;;;13.40;;
69008;SDS011;56065;52.472;13.380;2023-02-07T08:47:13;28.00;;;13.70;;
69008;SDS011;56065;52.472;13.380;2023-02-07T08:49:39;25.40;;;12.95;;
69008;SDS011;56065;52.472;13.380;2023-02-07T08:52:05;25.50;;;12.67;;
69008;SDS011;56065;52.472;13.380;2023-02-07T08:54:31;27.05;;;13.32;;
69008;SDS011;56065;52.472;13.380;2023-02-07T08:56:57;27.90;;;13.53;;
69008;SDS011;56065;52.472;13.380;2023-02-07T08:59:22;26.90;;;13.07;;
69008;SDS011;56065;52.472;13.380;2023-02-07T09:01:48;26.87;;;13.77;;
69008;SDS011;56065;52.472;13.380;2023-02-07T09:04:13;26.80;;;11.93;;
69008;SDS011;56065;52.472;13.380;2023-02-07T09:06:38;22.93;;;11.53;;
69008;SDS011;56065;52.472;13.380;2023-02-07T09:09:04;25.25;;;13.00;;
69008;SDS011;56065;52.472;13.380;2023-02-07T09:11:30;27.47;;;13.63;;
69008;SDS011;56065;52.472;13.380;2023-02-07T09:13:56;26.80;;;13.40;;
69008;SDS011;56065;52.472;13.380;2023-02-07T09:16:21;25.83;;;13.20;;
69008;SDS011;56065;52.472;13.380;2023-02-07T09:18:48;26.15;;;14.07;;
69008;SDS011;56065;52.472;13.380;2023-02-07T09:21:14;26.27;;;14.48;;
69008;SDS011;56065;52.472;13.380;2023-02-07T09:23:40;28.87;;;13.50;;
69008;SDS011;56065;52.472;13.380;2023-02-07T09:26:05;26.97;;;13.93;;
69008;SDS011;56065;52.472;13.380;2023-02-07T09:28:33;28.00;;;13.00;;
69008;SDS011;56065;52.472;13.380;2023-02-07T09:31:05;25.88;;;13.52;;
69008;SDS011;56065;52.472;13.380;2023-02-07T09:33:31;22.35;;;12.65;;
69008;SDS011;56065;52.472;13.380;2023-02-07T09:35:57;25.20;;;13.43;;
69008;SDS011;56065;52.472;13.380;2023-02-07T09:38:22;27.00;;;13.80;;
69008;SDS011;56065;52.472;13.380;2023-02-07T09:40:51;25.27;;;13.48;;
69008;SDS011;56065;52.472;13.380;2023-02-07T09:45:53;24.15;;;12.00;;
69008;SDS011;56065;52.472;13.380;2023-02-07T09:48:22;23.23;;;12.00;;
69008;SDS011;56065;52.472;13.380;2023-02-07T09:50:52;24.73;;;12.80;;
69008;SDS011;56065;52.472;13.380;2023-02-07T09:53:27;22.42;;;11.95;;
69008;SDS011;56065;52.472;13.380;2023-02-07T09:56:02;23.45;;;12.93;;
69008;SDS011;56065;52.472;13.380;2023-02-07T10:00:59;23.43;;;13.63;;
69008;SDS011;56065;52.472;13.380;2023-02-07T10:03:28;22.40;;;12.40;;
69008;SDS011;56065;52.472;13.380;2023-02-07T10:08:23;27.65;;;13.43;;
69008;SDS011;56065;52.472;13.380;2023-02-07T10:19:31;22.30;;;12.68;;
69008;SDS011;56065;52.472;13.380;2023-02-07T10:27:40;19.23;;;10.70;;
69008;SDS011;56065;52.472;13.380;2023-02-07T10:32:50;19.73;;;10.48;;
69008;SDS011;56065;52.472;13.380;2023-02-07T10:35:20;21.17;;;11.80;;
69008;SDS011;56065;52.472;13.380;2023-02-07T10:37:49;21.67;;;12.20;;
69008;SDS011;56065;52.472;13.380;2023-02-07T10:42:43;20.93;;;11.80;;
69008;SDS011;56065;52.472;13.380;2023-02-07T10:45:14;21.90;;;11.17;;
69008;SDS011;56065;52.472;13.380;2023-02-07T10:47:40;24.05;;;12.70;;
69008;SDS011;56065;52.472;13.380;2023-02-07T10:50:07;24.20;;;12.23;;
69008;SDS011;56065;52.472;13.380;2023-02-07T10:52:42;22.97;;;11.53;;
69008;SDS011;56065;52.472;13.380;2023-02-07T10:55:13;23.83;;;11.45;;
69008;SDS011;56065;52.472;13.380;2023-02-07T10:57:43;20.60;;;10.73;;
69008;SDS011;56065;52.472;13.380;2023-02-07T11:00:21;23.27;;;11.50;;
69008;SDS011;56065;52.472;13.380;2023-02-07T11:02:53;22.42;;;11.13;;
69008;SDS011;56065;52.472;13.380;2023-02-07T11:07:58;21.63;;;10.77;;
69008;SDS011;56065;52.472;13.380;2023-02-07T11:10:27;22.88;;;11.90;;
69008;SDS011;56065;52.472;13.380;2023-02-07T11:12:56;20.17;;;10.20;;
69008;SDS011;56065;52.472;13.380;2023-02-07T11:15:25;20.48;;;10.88;;
69008;SDS011;56065;52.472;13.380;2023-02-07T11:17:56;19.57;;;10.33;;
69008;SDS011;56065;52.472;13.380;2023-02-07T11:20:35;20.50;;;11.10;;
69008;SDS011;56065;52.472;13.380;2023-02-07T11:23:09;18.40;;;9.63;;
69008;SDS011;56065;52.472;13.380;2023-02-07T11:25:38;21.48;;;10.10;;
69008;SDS011;56065;52.472;13.380;2023-02-07T11:28:19;19.85;;;10.88;;
69008;SDS011;56065;52.472;13.380;2023-02-07T11:30:50;20.53;;;10.03;;
69008;SDS011;56065;52.472;13.380;2023-02-07T11:33:27;19.38;;;9.15;;
69008;SDS011;56065;52.472;13.380;2023-02-07T11:36:01;19.52;;;9.88;;
69008;SDS011;56065;52.472;13.380;2023-02-07T11:38:53;18.88;;;9.98;;
69008;SDS011;56065;52.472;13.380;2023-02-07T11:41:27;21.63;;;9.98;;
69008;SDS011;56065;52.472;13.380;2023-02-07T11:43:59;17.47;;;8.83;;
69008;SDS011;56065;52.472;13.380;2023-02-07T11:48:56;20.35;;;9.95;;
69008;SDS011;56065;52.472;13.380;2023-02-07T11:51:22;18.85;;;8.73;;
69008;SDS011;56065;52.472;13.380;2023-02-07T11:53:49;18.27;;;8.80;;
69008;SDS011;56065;52.472;13.380;2023-02-07T11:59:18;16.10;;;7.88;;
69008;SDS011;56065;52.472;13.380;2023-02-07T12:01:57;16.92;;;8.10;;
69008;SDS011;56065;52.472;13.380;2023-02-07T12:04:24;16.13;;;7.93;;
69008;SDS011;56065;52.472;13.380;2023-02-07T12:07:00;14.60;;;8.07;;
69008;SDS011;56065;52.472;13.380;2023-02-07T12:12:02;16.48;;;8.70;;
69008;SDS011;56065;52.472;13.380;2023-02-07T12:14:44;17.67;;;8.70;;
69008;SDS011;56065;52.472;13.380;2023-02-07T12:17:33;16.40;;;8.73;;
69008;SDS011;56065;52.472;13.380;2023-02-07T12:20:10;17.30;;;9.10;;
69008;SDS011;56065;52.472;13.380;2023-02-07T12:22:47;15.68;;;8.57;;
69008;SDS011;56065;52.472;13.380;2023-02-07T12:25:22;15.10;;;8.18;;
69008;SDS011;56065;52.472;13.380;2023-02-07T12:27:52;15.10;;;7.97;;
69008;SDS011;56065;52.472;13.380;2023-02-07T12:30:45;16.42;;;9.32;;
69008;SDS011;56065;52.472;13.380;2023-02-07T12:33:21;15.37;;;8.07;;
69008;SDS011;56065;52.472;13.380;2023-02-07T12:38:56;14.32;;;8.15;;
69008;SDS011;56065;52.472;13.380;2023-02-07T12:41:30;12.85;;;7.03;;
69008;SDS011;56065;52.472;13.380;2023-02-07T12:47:05;15.10;;;7.70;;
69008;SDS011;56065;52.472;13.380;2023-02-07T13:03:17;17.52;;;8.45;;
69008;SDS011;56065;52.472;13.380;2023-02-07T13:09:30;15.52;;;8.20;;
69008;SDS011;56065;52.472;13.380;2023-02-07T13:11:38;15.65;;;7.97;;
69008;SDS011;56065;52.472;13.380;2023-02-07T13:19:50;18.40;;;9.07;;
69008;SDS011;56065;52.472;13.380;2023-02-07T13:22:34;22.33;;;9.10;;
69008;SDS011;56065;52.472;13.380;2023-02-07T13:25:11;21.23;;;8.70;;
69008;SDS011;56065;52.472;13.380;2023-02-07T13:27:42;19.95;;;9.05;;
69008;SDS011;56065;52.472;13.380;2023-02-07T13:30:12;17.60;;;9.17;;
69008;SDS011;56065;52.472;13.380;2023-02-07T13:32:40;18.73;;;8.82;;
69008;SDS011;56065;52.472;13.380;2023-02-07T13:37:57;17.98;;;9.15;;
69008;SDS011;56065;52.472;13.380;2023-02-07T13:43:18;22.73;;;9.98;;
69008;SDS011;56065;52.472;13.380;2023-02-07T13:46:06;18.73;;;9.38;;
69008;SDS011;56065;52.472;13.380;2023-02-07T13:48:43;21.77;;;9.60;;
69008;SDS011;56065;52.472;13.380;2023-02-07T13:51:23;19.50;;;9.13;;
69008;SDS011;56065;52.472;13.380;2023-02-07T13:56:54;18.80;;;8.70;;
69008;SDS011;56065;52.472;13.380;2023-02-07T13:59:40;18.85;;;9.57;;
69008;SDS011;56065;52.472;13.380;2023-02-07T14:02:19;20.17;;;8.80;;
69008;SDS011;56065;52.472;13.380;2023-02-07T14:07:20;17.85;;;8.60;;
69008;SDS011;56065;52.472;13.380;2023-02-07T14:09:50;20.33;;;8.50;;
69008;SDS011;56065;52.472;13.380;2023-02-07T14:14:41;18.07;;;8.70;;
69008;SDS011;56065;52.472;13.380;2023-02-07T14:17:14;22.00;;;9.30;;
69008;SDS011;56065;52.472;13.380;2023-02-07T14:19:59;19.85;;;8.38;;
69008;SDS011;56065;52.472;13.380;2023-02-07T14:23:47;18.15;;;8.27;;
69008;SDS011;56065;52.472;13.380;2023-02-07T14:30:27;18.98;;;8.52;;
69008;SDS011;56065;52.472;13.380;2023-02-07T14:38:39;21.33;;;8.63;;
69008;SDS011;56065;52.472;13.380;2023-02-07T14:41:10;16.90;;;7.65;;
69008;SDS011;56065;52.472;13.380;2023-02-07T14:43:39;20.50;;;8.07;;
69008;SDS011;56065;52.472;13.380;2023-02-07T14:46:45;20.05;;;8.82;;
69008;SDS011;56065;52.472;13.380;2023-02-07T15:04:57;17.23;;;8.60;;
69008;SDS011;56065;52.472;13.380;2023-02-07T15:07:23;20.02;;;8.80;;
69008;SDS011;56065;52.472;13.380;2023-02-07T15:09:48;18.57;;;8.70;;
69008;SDS011;56065;52.472;13.380;2023-02-07T15:12:23;19.50;;;7.93;;
69008;SDS011;56065;52.472;13.380;2023-02-07T15:14:54;20.23;;;8.03;;
69008;SDS011;56065;52.472;13.380;2023-02-07T15:17:24;18.20;;;7.88;;
69008;SDS011;56065;52.472;13.380;2023-02-07T15:19:50;20.77;;;8.10;;
69008;SDS011;56065;52.472;13.380;2023-02-07T15:22:26;18.65;;;8.30;;
69008;SDS011;56065;52.472;13.380;2023-02-07T15:24:56;19.77;;;8.43;;
69008;SDS011;56065;52.472;13.380;2023-02-07T15:27:25;19.10;;;8.30;;
69008;SDS011;56065;52.472;13.380;2023-02-07T15:29:53;18.90;;;7.90;;
69008;SDS011;56065;52.472;13.380;2023-02-07T15:34:47;19.52;;;8.18;;
69008;SDS011;56065;52.472;13.380;2023-02-07T15:37:14;22.03;;;8.93;;
69008;SDS011;56065;52.472;13.380;2023-02-07T15:39:43;19.00;;;8.02;;
69008;SDS011;56065;52.472;13.380;2023-02-07T15:42:15;20.90;;;9.20;;
69008;SDS011;56065;52.472;13.380;2023-02-07T15:44:49;19.73;;;8.40;;
69008;SDS011;56065;52.472;13.380;2023-02-07T15:50:19;21.23;;;8.45;;
69008;SDS011;56065;52.472;13.380;2023-02-07T15:52:48;19.35;;;8.15;;
69008;SDS011;56065;52.472;13.380;2023-02-07T15:55:23;21.40;;;8.50;;
69008;SDS011;56065;52.472;13.380;2023-02-07T15:58:06;17.95;;;8.65;;
69008;SDS011;56065;52.472;13.380;2023-02-07T16:00:39;20.20;;;9.13;;
69008;SDS011;56065;52.472;13.380;2023-02-07T16:03:21;20.75;;;9.13;;
69008;SDS011;56065;52.472;13.380;2023-02-07T16:05:59;22.30;;;9.20;;
69008;SDS011;56065;52.472;13.380;2023-02-07T16:08:46;22.83;;;9.40;;
69008;SDS011;56065;52.472;13.380;2023-02-07T16:13:54;22.73;;;9.80;;
69008;SDS011;56065;52.472;13.380;2023-02-07T16:19:02;22.57;;;9.57;;
69008;SDS011;56065;52.472;13.380;2023-02-07T16:21:41;24.38;;;9.75;;
69008;SDS011;56065;52.472;13.380;2023-02-07T16:24:08;22.08;;;9.55;;
69008;SDS011;56065;52.472;13.380;2023-02-07T16:26:36;25.35;;;9.73;;
69008;SDS011;56065;52.472;13.380;2023-02-07T16:29:05;24.80;;;10.43;;
69008;SDS011;56065;52.472;13.380;2023-02-07T16:31:31;21.90;;;10.05;;
69008;SDS011;56065;52.472;13.380;2023-02-07T16:33:57;28.17;;;9.95;;
69008;SDS011;56065;52.472;13.380;2023-02-07T16:36:22;22.77;;;9.53;;
69008;SDS011;56065;52.472;13.380;2023-02-07T16:38:48;24.90;;;9.93;;
69008;SDS011;56065;52.472;13.380;2023-02-07T16:41:20;22.10;;;9.50;;
69008;SDS011;56065;52.472;13.380;2023-02-07T16:43:55;22.45;;;9.50;;
69008;SDS011;56065;52.472;13.380;2023-02-07T16:46:21;21.58;;;9.93;;
69008;SDS011;56065;52.472;13.380;2023-02-07T16:48:46;22.80;;;10.07;;
69008;SDS011;56065;52.472;13.380;2023-02-07T16:51:11;23.03;;;9.80;;
69008;SDS011;56065;52.472;13.380;2023-02-07T16:53:37;24.20;;;10.17;;
69008;SDS011;56065;52.472;13.380;2023-02-07T16:56:02;25.40;;;9.67;;
69008;SDS011;56065;52.472;13.380;2023-02-07T16:58:29;22.63;;;9.27;;
69008;SDS011;56065;52.472;13.380;2023-02-07T17:00:55;23.25;;;9.77;;
69008;SDS011;56065;52.472;13.380;2023-02-07T17:03:21;25.30;;;10.10;;
69008;SDS011;56065;52.472;13.380;2023-02-07T17:05:47;22.88;;;9.65;;
69008;SDS011;56065;52.472;13.380;2023-02-07T17:08:13;28.47;;;10.40;;